sensor_id;sensor_type;location;lat;lon;timestamp;pressure;altitude;pressure_sealevel;temperature;humidity
56052;BME280;41919;42.648;23.384;2023-04-16T00:00:07;94067.94;;;10.01;55.48
56052;BME280;41919;42.648;23.384;2023-04-16T00:02:33;94052.97;;;9.90;55.59
56052;BME280;41919;42.648;23.384;2023-04-16T00:04:58;93987.78;;;9.51;55.66
56052;BME280;41919;42.648;23.384;2023-04-16T00:07:23;94067.13;;;10.00;55.35
56052;BME280;41919;42.648;23.384;2023-04-16T00:09:49;94061.31;;;9.98;55.25
56052;BME280;41919;42.648;23.384;2023-04-16T00:12:14;94061.53;;;9.97;54.96
56052;BME280;41919;42.648;23.384;2023-04-16T00:14:40;94040.91;;;9.89;55.74
56052;BME280;41919;42.648;23.384;2023-04-16T00:17:08;94066.25;;;9.81;56.50
56052;BME280;41919;42.648;23.384;2023-04-16T00:19:33;94088.41;;;9.66;56.72
56052;BME280;41919;42.648;23.384;2023-04-16T00:21:59;94047.97;;;9.50;56.10
56052;BME280;41919;42.648;23.384;2023-04-16T00:24:24;93991.41;;;9.12;56.65
56052;BME280;41919;42.648;23.384;2023-04-16T00:26:50;94004.19;;;9.20;56.57
56052;BME280;41919;42.648;23.384;2023-04-16T00:29:15;94058.38;;;9.56;56.19
56052;BME280;41919;42.648;23.384;2023-04-16T00:31:41;94054.69;;;9.71;55.60
56052;BME280;41919;42.648;23.384;2023-04-16T00:34:06;94045.53;;;9.55;55.29
56052;BME280;41919;42.648;23.384;2023-04-16T00:36:31;93957.41;;;8.93;55.61
56052;BME280;41919;42.648;23.384;2023-04-16T00:38:57;94017.22;;;9.20;55.83
56052;BME280;41919;42.648;23.384;2023-04-16T00:41:22;94002.47;;;9.00;56.31
56052;BME280;41919;42.648;23.384;2023-04-16T00:43:48;93986.06;;;8.93;56.13
56052;BME280;41919;42.648;23.384;2023-04-16T00:46:15;94044.25;;;9.32;56.13
56052;BME280;41919;42.648;23.384;2023-04-16T00:48:42;94044.31;;;9.19;56.66
56052;BME280;41919;42.648;23.384;2023-04-16T00:51:09;94047.75;;;9.13;56.74
56052;BME280;41919;42.648;23.384;2023-04-16T00:53:35;93998.16;;;8.74;57.37
56052;BME280;41919;42.648;23.384;2023-04-16T00:56:02;94054.22;;;9.03;57.81
56052;BME280;41919;42.648;23.384;2023-04-16T00:58:28;93897.81;;;8.00;57.71
56052;BME280;41919;42.648;23.384;2023-04-16T01:00:54;93975.81;;;8.40;58.50
56052;BME280;41919;42.648;23.384;2023-04-16T01:03:21;94050.06;;;8.82;58.70
56052;BME280;41919;42.648;23.384;2023-04-16T01:05:46;94001.06;;;8.46;58.63
56052;BME280;41919;42.648;23.384;2023-04-16T01:08:20;94057.06;;;8.82;58.57
56052;BME280;41919;42.648;23.384;2023-04-16T01:10:46;93981.41;;;8.37;58.64
56052;BME280;41919;42.648;23.384;2023-04-16T01:13:12;93998.84;;;8.50;58.16
56052;BME280;41919;42.648;23.384;2023-04-16T01:15:37;94051.47;;;8.78;58.17
56052;BME280;41919;42.648;23.384;2023-04-16T01:18:15;93944.41;;;8.15;58.35
56052;BME280;41919;42.648;23.384;2023-04-16T01:20:41;93999.84;;;8.49;58.69
56052;BME280;41919;42.648;23.384;2023-04-16T01:23:07;93993.41;;;8.51;57.94
56052;BME280;41919;42.648;23.384;2023-04-16T01:25:32;93957.63;;;8.27;57.99
56052;BME280;41919;42.648;23.384;2023-04-16T01:27:58;93979.41;;;8.39;58.25
56052;BME280;41919;42.648;23.384;2023-04-16T01:30:24;93957.00;;;8.31;58.23
56052;BME280;41919;42.648;23.384;2023-04-16T01:32:49;93972.22;;;8.48;57.86
56052;BME280;41919;42.648;23.384;2023-04-16T01:35:15;94048.00;;;8.91;57.71
56052;BME280;41919;42.648;23.384;2023-04-16T01:37:42;94000.41;;;8.71;57.58
56052;BME280;41919;42.648;23.384;2023-04-16T01:40:08;93986.19;;;8.60;57.57
56052;BME280;41919;42.648;23.384;2023-04-16T01:42:33;93955.78;;;8.47;57.33
56052;BME280;41919;42.648;23.384;2023-04-16T01:44:59;94041.38;;;8.95;58.13
56052;BME280;41919;42.648;23.384;2023-04-16T01:47:25;94020.66;;;8.69;58.81
56052;BME280;41919;42.648;23.384;2023-04-16T01:49:50;93971.81;;;8.24;59.15
56052;BME280;41919;42.648;23.384;2023-04-16T01:52:16;94021.31;;;8.44;60.12
56052;BME280;41919;42.648;23.384;2023-04-16T01:54:41;94026.66;;;8.36;60.34
56052;BME280;41919;42.648;23.384;2023-04-16T01:57:07;93974.47;;;8.04;60.25
56052;BME280;41919;42.648;23.384;2023-04-16T01:59:32;93976.66;;;8.07;60.34
56052;BME280;41919;42.648;23.384;2023-04-16T02:02:08;94035.91;;;8.45;60.25
56052;BME280;41919;42.648;23.384;2023-04-16T02:04:39;93841.25;;;7.29;59.87
56052;BME280;41919;42.648;23.384;2023-04-16T02:07:05;94031.88;;;8.36;59.85
56052;BME280;41919;42.648;23.384;2023-04-16T02:09:33;94027.88;;;8.40;60.06
56052;BME280;41919;42.648;23.384;2023-04-16T02:11:59;94041.13;;;8.45;60.36
56052;BME280;41919;42.648;23.384;2023-04-16T02:14:26;94029.47;;;8.41;60.58
56052;BME280;41919;42.648;23.384;2023-04-16T02:16:52;94039.53;;;8.44;61.21
56052;BME280;41919;42.648;23.384;2023-04-16T02:19:17;94029.06;;;8.37;61.58
56052;BME280;41919;42.648;23.384;2023-04-16T02:21:43;93988.06;;;8.06;61.73
56052;BME280;41919;42.648;23.384;2023-04-16T02:24:08;94039.28;;;8.39;61.93
56052;BME280;41919;42.648;23.384;2023-04-16T02:26:34;94033.88;;;8.34;62.13
56052;BME280;41919;42.648;23.384;2023-04-16T02:28:59;93977.88;;;7.98;62.03
56052;BME280;41919;42.648;23.384;2023-04-16T02:31:25;94000.28;;;8.05;62.30
56052;BME280;41919;42.648;23.384;2023-04-16T02:33:52;93976.88;;;7.85;62.01
56052;BME280;41919;42.648;23.384;2023-04-16T02:36:18;94031.91;;;8.29;61.79
56052;BME280;41919;42.648;23.384;2023-04-16T02:38:43;94013.91;;;8.08;62.06
56052;BME280;41919;42.648;23.384;2023-04-16T02:41:08;93962.88;;;7.80;62.30
56052;BME280;41919;42.648;23.384;2023-04-16T02:43:34;94028.28;;;8.17;62.26
56052;BME280;41919;42.648;23.384;2023-04-16T02:46:00;94027.91;;;8.13;62.29
56052;BME280;41919;42.648;23.384;2023-04-16T02:48:25;94029.72;;;8.06;62.75
56052;BME280;41919;42.648;23.384;2023-04-16T02:50:50;93997.09;;;7.90;62.64
56052;BME280;41919;42.648;23.384;2023-04-16T02:53:16;94022.88;;;8.05;62.56
56052;BME280;41919;42.648;23.384;2023-04-16T02:55:49;93946.25;;;7.61;62.97
56052;BME280;41919;42.648;23.384;2023-04-16T02:58:16;93947.84;;;7.55;63.05
56052;BME280;41919;42.648;23.384;2023-04-16T03:00:42;93913.28;;;7.35;63.05
56052;BME280;41919;42.648;23.384;2023-04-16T03:03:07;94013.69;;;8.02;63.12
56052;BME280;41919;42.648;23.384;2023-04-16T03:05:33;93936.84;;;7.53;63.23
56052;BME280;41919;42.648;23.384;2023-04-16T03:07:58;94012.91;;;8.02;63.24
56052;BME280;41919;42.648;23.384;2023-04-16T03:10:23;93980.06;;;7.74;63.43
56052;BME280;41919;42.648;23.384;2023-04-16T03:12:49;94011.50;;;7.93;63.75
56052;BME280;41919;42.648;23.384;2023-04-16T03:15:14;93966.25;;;7.60;64.16
56052;BME280;41919;42.648;23.384;2023-04-16T03:17:40;94028.31;;;7.97;63.76
56052;BME280;41919;42.648;23.384;2023-04-16T03:20:06;93902.03;;;7.21;63.76
56052;BME280;41919;42.648;23.384;2023-04-16T03:22:31;94025.31;;;8.00;63.45
56052;BME280;41919;42.648;23.384;2023-04-16T03:24:57;94022.72;;;8.00;63.19
56052;BME280;41919;42.648;23.384;2023-04-16T03:27:22;94025.09;;;8.01;63.29
56052;BME280;41919;42.648;23.384;2023-04-16T03:29:48;94023.09;;;8.10;62.76
56052;BME280;41919;42.648;23.384;2023-04-16T03:32:13;94011.69;;;8.11;62.76
56052;BME280;41919;42.648;23.384;2023-04-16T03:34:39;94012.50;;;8.12;63.06
56052;BME280;41919;42.648;23.384;2023-04-16T03:37:04;94010.88;;;7.97;63.56
56052;BME280;41919;42.648;23.384;2023-04-16T03:39:31;93939.69;;;7.52;63.41
56052;BME280;41919;42.648;23.384;2023-04-16T03:41:56;93962.25;;;7.64;63.91
56052;BME280;41919;42.648;23.384;2023-04-16T03:44:21;94007.91;;;7.87;64.21
56052;BME280;41919;42.648;23.384;2023-04-16T03:46:47;94027.50;;;8.03;64.34
56052;BME280;41919;42.648;23.384;2023-04-16T03:49:12;94025.72;;;8.03;64.45
56052;BME280;41919;42.648;23.384;2023-04-16T03:51:38;93980.88;;;7.75;64.89
56052;BME280;41919;42.648;23.384;2023-04-16T03:54:03;93960.66;;;7.57;64.57
56052;BME280;41919;42.648;23.384;2023-04-16T03:56:29;93959.06;;;7.56;64.57
56052;BME280;41919;42.648;23.384;2023-04-16T03:58:54;93896.25;;;7.19;64.48
56052;BME280;41919;42.648;23.384;2023-04-16T04:01:20;94009.69;;;7.93;64.25
56052;BME280;41919;42.648;23.384;2023-04-16T04:03:45;93956.66;;;7.61;64.07
56052;BME280;41919;42.648;23.384;2023-04-16T04:06:10;93975.69;;;7.81;63.64
56052;BME280;41919;42.648;23.384;2023-04-16T04:08:36;93972.84;;;7.90;63.28
56052;BME280;41919;42.648;23.384;2023-04-16T04:11:01;94023.09;;;8.23;63.16
56052;BME280;41919;42.648;23.384;2023-04-16T04:13:27;94051.91;;;8.35;62.93
56052;BME280;41919;42.648;23.384;2023-04-16T04:15:52;93998.88;;;8.10;62.94
56052;BME280;41919;42.648;23.384;2023-04-16T04:18:18;94049.72;;;8.39;63.52
56052;BME280;41919;42.648;23.384;2023-04-16T04:20:43;93922.06;;;7.67;63.29
56052;BME280;41919;42.648;23.384;2023-04-16T04:23:09;94043.53;;;8.47;62.91
56052;BME280;41919;42.648;23.384;2023-04-16T04:25:34;94047.94;;;8.46;63.12
56052;BME280;41919;42.648;23.384;2023-04-16T04:28:00;94046.13;;;8.40;63.12
56052;BME280;41919;42.648;23.384;2023-04-16T04:30:25;93985.06;;;8.02;63.25
56052;BME280;41919;42.648;23.384;2023-04-16T04:32:51;94059.75;;;8.49;63.76
56052;BME280;41919;42.648;23.384;2023-04-16T04:35:16;93988.06;;;8.06;64.04
56052;BME280;41919;42.648;23.384;2023-04-16T04:37:42;94016.09;;;8.11;64.70
56052;BME280;41919;42.648;23.384;2023-04-16T04:40:08;94054.53;;;8.29;65.18
56052;BME280;41919;42.648;23.384;2023-04-16T04:42:33;93967.06;;;7.74;65.58
56052;BME280;41919;42.648;23.384;2023-04-16T04:44:59;94067.56;;;8.42;65.66
56052;BME280;41919;42.648;23.384;2023-04-16T04:47:24;94069.56;;;8.40;66.23
56052;BME280;41919;42.648;23.384;2023-04-16T04:49:50;94020.50;;;8.10;66.34
56052;BME280;41919;42.648;23.384;2023-04-16T04:52:15;94069.16;;;8.43;67.08
56052;BME280;41919;42.648;23.384;2023-04-16T04:54:41;94064.13;;;8.35;67.30
56052;BME280;41919;42.648;23.384;2023-04-16T04:57:07;94022.13;;;8.11;67.22
56052;BME280;41919;42.648;23.384;2023-04-16T04:59:32;94056.75;;;8.45;65.84
56052;BME280;41919;42.648;23.384;2023-04-16T05:01:58;94004.25;;;8.15;65.42
56052;BME280;41919;42.648;23.384;2023-04-16T05:04:24;94016.88;;;8.24;64.38
56052;BME280;41919;42.648;23.384;2023-04-16T05:06:50;94073.16;;;8.66;64.42
56052;BME280;41919;42.648;23.384;2023-04-16T05:09:15;94070.31;;;8.74;64.06
56052;BME280;41919;42.648;23.384;2023-04-16T05:11:41;94003.84;;;8.38;63.83
56052;BME280;41919;42.648;23.384;2023-04-16T05:14:07;94032.25;;;8.73;63.48
56052;BME280;41919;42.648;23.384;2023-04-16T05:16:36;94059.81;;;9.00;63.17
56052;BME280;41919;42.648;23.384;2023-04-16T05:19:02;94065.56;;;9.16;63.39
56052;BME280;41919;42.648;23.384;2023-04-16T05:21:28;94069.31;;;9.33;63.21
56052;BME280;41919;42.648;23.384;2023-04-16T05:23:53;94056.00;;;9.48;61.75
56052;BME280;41919;42.648;23.384;2023-04-16T05:26:19;94063.56;;;9.63;61.41
56052;BME280;41919;42.648;23.384;2023-04-16T05:28:45;94039.50;;;9.61;61.02
56052;BME280;41919;42.648;23.384;2023-04-16T05:31:10;94056.31;;;9.65;60.71
56052;BME280;41919;42.648;23.384;2023-04-16T05:33:36;93980.72;;;9.20;60.40
56052;BME280;41919;42.648;23.384;2023-04-16T05:36:01;93996.34;;;9.27;60.36
56052;BME280;41919;42.648;23.384;2023-04-16T05:38:26;94016.44;;;9.58;60.63
56052;BME280;41919;42.648;23.384;2023-04-16T05:40:52;94053.47;;;10.05;60.20
56052;BME280;41919;42.648;23.384;2023-04-16T05:43:17;93999.13;;;9.95;59.56
56052;BME280;41919;42.648;23.384;2023-04-16T05:45:43;94063.31;;;10.53;58.69
56052;BME280;41919;42.648;23.384;2023-04-16T05:48:08;94007.16;;;10.44;58.20
56052;BME280;41919;42.648;23.384;2023-04-16T05:50:35;94046.53;;;10.86;57.61
56052;BME280;41919;42.648;23.384;2023-04-16T05:53:01;94066.72;;;10.97;57.57
56052;BME280;41919;42.648;23.384;2023-04-16T05:55:27;94075.56;;;11.15;57.49
56052;BME280;41919;42.648;23.384;2023-04-16T05:57:52;94011.38;;;10.82;57.56
56052;BME280;41919;42.648;23.384;2023-04-16T06:00:18;94072.53;;;11.18;57.86
56052;BME280;41919;42.648;23.384;2023-04-16T06:02:43;94068.72;;;11.14;57.75
56052;BME280;41919;42.648;23.384;2023-04-16T06:05:09;94062.81;;;11.37;57.18
56052;BME280;41919;42.648;23.384;2023-04-16T06:07:34;93954.03;;;10.69;56.09
56052;BME280;41919;42.648;23.384;2023-04-16T06:10:00;93997.66;;;11.35;55.74
56052;BME280;41919;42.648;23.384;2023-04-16T06:12:25;94047.50;;;12.01;54.48
56052;BME280;41919;42.648;23.384;2023-04-16T06:14:51;94045.53;;;12.50;53.32
56052;BME280;41919;42.648;23.384;2023-04-16T06:17:16;94027.13;;;12.86;51.40
56052;BME280;41919;42.648;23.384;2023-04-16T06:19:43;94018.38;;;13.21;49.88
56052;BME280;41919;42.648;23.384;2023-04-16T06:22:08;94014.78;;;13.10;49.74
56052;BME280;41919;42.648;23.384;2023-04-16T06:24:34;94057.81;;;13.49;49.97
56052;BME280;41919;42.648;23.384;2023-04-16T06:26:59;93992.91;;;13.45;49.07
56052;BME280;41919;42.648;23.384;2023-04-16T06:29:25;94017.41;;;13.79;48.40
56052;BME280;41919;42.648;23.384;2023-04-16T06:31:50;93988.25;;;13.98;47.23
56052;BME280;41919;42.648;23.384;2023-04-16T06:34:16;94042.84;;;14.58;46.47
56052;BME280;41919;42.648;23.384;2023-04-16T06:36:41;94045.63;;;15.07;45.63
56052;BME280;41919;42.648;23.384;2023-04-16T06:39:07;94002.84;;;15.17;44.15
56052;BME280;41919;42.648;23.384;2023-04-16T06:41:32;94040.56;;;15.94;42.98
56052;BME280;41919;42.648;23.384;2023-04-16T06:43:57;94042.03;;;16.44;42.04
56052;BME280;41919;42.648;23.384;2023-04-16T06:46:23;94039.66;;;16.80;40.85
56052;BME280;41919;42.648;23.384;2023-04-16T06:48:48;93996.06;;;17.20;39.67
56052;BME280;41919;42.648;23.384;2023-04-16T06:51:14;94021.28;;;17.69;38.45
56052;BME280;41919;42.648;23.384;2023-04-16T06:53:39;94060.00;;;18.21;38.09
56052;BME280;41919;42.648;23.384;2023-04-16T06:56:05;94050.75;;;18.65;36.87
56052;BME280;41919;42.648;23.384;2023-04-16T06:58:30;93999.97;;;18.42;36.20
56052;BME280;41919;42.648;23.384;2023-04-16T07:00:57;93992.56;;;18.03;36.69
56052;BME280;41919;42.648;23.384;2023-04-16T07:03:23;94030.50;;;17.56;38.54
56052;BME280;41919;42.648;23.384;2023-04-16T07:05:48;94040.97;;;18.25;37.68
56052;BME280;41919;42.648;23.384;2023-04-16T07:08:13;93975.66;;;18.15;36.70
56052;BME280;41919;42.648;23.384;2023-04-16T07:10:39;94005.78;;;18.29;36.11
56052;BME280;41919;42.648;23.384;2023-04-16T07:13:05;94032.25;;;18.24;37.25
56052;BME280;41919;42.648;23.384;2023-04-16T07:15:30;94014.50;;;18.35;36.71
56052;BME280;41919;42.648;23.384;2023-04-16T07:17:55;94034.38;;;18.53;36.13
56052;BME280;41919;42.648;23.384;2023-04-16T07:20:21;94046.81;;;18.83;35.96
56052;BME280;41919;42.648;23.384;2023-04-16T07:22:46;93971.94;;;18.41;35.91
56052;BME280;41919;42.648;23.384;2023-04-16T07:25:12;94048.13;;;18.86;36.42
56052;BME280;41919;42.648;23.384;2023-04-16T07:27:37;94036.41;;;19.02;35.83
56052;BME280;41919;42.648;23.384;2023-04-16T07:30:03;94001.47;;;19.10;35.11
56052;BME280;41919;42.648;23.384;2023-04-16T07:32:28;94042.16;;;19.35;35.18
56052;BME280;41919;42.648;23.384;2023-04-16T07:34:54;94054.88;;;19.33;35.18
56052;BME280;41919;42.648;23.384;2023-04-16T07:37:20;94045.91;;;19.24;35.34
56052;BME280;41919;42.648;23.384;2023-04-16T07:39:45;94040.50;;;19.49;37.49
56052;BME280;41919;42.648;23.384;2023-04-16T07:42:11;94052.16;;;19.53;35.81
56052;BME280;41919;42.648;23.384;2023-04-16T07:44:37;93975.06;;;18.59;36.52
56052;BME280;41919;42.648;23.384;2023-04-16T07:47:02;94035.06;;;19.10;35.75
56052;BME280;41919;42.648;23.384;2023-04-16T07:49:27;94044.56;;;19.26;35.29
56052;BME280;41919;42.648;23.384;2023-04-16T07:51:53;94012.31;;;19.04;35.42
56052;BME280;41919;42.648;23.384;2023-04-16T07:54:18;94051.16;;;19.29;35.66
56052;BME280;41919;42.648;23.384;2023-04-16T07:56:45;94044.25;;;19.38;35.51
56052;BME280;41919;42.648;23.384;2023-04-16T07:59:10;94030.16;;;19.58;35.40
56052;BME280;41919;42.648;23.384;2023-04-16T08:01:36;93986.75;;;19.44;35.44
56052;BME280;41919;42.648;23.384;2023-04-16T08:04:01;94036.03;;;20.00;34.79
56052;BME280;41919;42.648;23.384;2023-04-16T08:06:27;94006.03;;;20.04;34.53
56052;BME280;41919;42.648;23.384;2023-04-16T08:08:52;94031.88;;;20.28;34.22
56052;BME280;41919;42.648;23.384;2023-04-16T08:11:18;93976.84;;;20.39;33.78
56052;BME280;41919;42.648;23.384;2023-04-16T08:13:43;93971.94;;;21.09;33.92
56052;BME280;41919;42.648;23.384;2023-04-16T08:16:08;93958.88;;;21.56;33.98
56052;BME280;41919;42.648;23.384;2023-04-16T08:18:34;93978.00;;;21.96;33.33
56052;BME280;41919;42.648;23.384;2023-04-16T08:20:59;94011.28;;;22.31;33.58
56052;BME280;41919;42.648;23.384;2023-04-16T08:23:25;94018.78;;;22.76;31.80
56052;BME280;41919;42.648;23.384;2023-04-16T08:25:50;93966.22;;;22.82;31.32
56052;BME280;41919;42.648;23.384;2023-04-16T08:28:16;94014.56;;;22.89;31.30
56052;BME280;41919;42.648;23.384;2023-04-16T08:30:41;93987.09;;;23.07;30.24
56052;BME280;41919;42.648;23.384;2023-04-16T08:33:07;94017.72;;;23.38;29.20
56052;BME280;41919;42.648;23.384;2023-04-16T08:35:32;94007.72;;;23.43;29.68
56052;BME280;41919;42.648;23.384;2023-04-16T08:37:58;94003.75;;;23.41;30.17
56052;BME280;41919;42.648;23.384;2023-04-16T08:40:27;94005.78;;;22.75;30.25
56052;BME280;41919;42.648;23.384;2023-04-16T08:42:55;94007.47;;;22.70;30.16
56052;BME280;41919;42.648;23.384;2023-04-16T08:45:24;93947.19;;;22.09;30.85
56052;BME280;41919;42.648;23.384;2023-04-16T08:47:50;93947.38;;;22.31;30.74
56052;BME280;41919;42.648;23.384;2023-04-16T08:50:21;93956.38;;;22.17;30.79
56052;BME280;41919;42.648;23.384;2023-04-16T08:52:52;94002.59;;;23.05;29.85
56052;BME280;41919;42.648;23.384;2023-04-16T08:55:21;93981.97;;;22.64;30.42
56052;BME280;41919;42.648;23.384;2023-04-16T08:57:51;93933.88;;;20.90;32.79
56052;BME280;41919;42.648;23.384;2023-04-16T09:00:19;93964.81;;;20.81;33.90
56052;BME280;41919;42.648;23.384;2023-04-16T09:02:45;93991.38;;;21.29;33.86
56052;BME280;41919;42.648;23.384;2023-04-16T09:05:13;93943.59;;;21.43;32.27
56052;BME280;41919;42.648;23.384;2023-04-16T09:07:43;93979.09;;;21.33;32.30
56052;BME280;41919;42.648;23.384;2023-04-16T09:10:09;93958.47;;;21.25;32.32
56052;BME280;41919;42.648;23.384;2023-04-16T09:12:34;93886.84;;;20.71;32.50
56052;BME280;41919;42.648;23.384;2023-04-16T09:15:01;93929.28;;;21.20;32.19
56052;BME280;41919;42.648;23.384;2023-04-16T09:17:27;93963.69;;;21.73;32.31
56052;BME280;41919;42.648;23.384;2023-04-16T09:19:53;93925.16;;;21.51;32.63
56052;BME280;41919;42.648;23.384;2023-04-16T09:22:19;93984.66;;;21.93;32.54
56052;BME280;41919;42.648;23.384;2023-04-16T09:24:45;93933.38;;;22.07;31.79
56052;BME280;41919;42.648;23.384;2023-04-16T09:27:11;93942.47;;;22.39;31.62
56052;BME280;41919;42.648;23.384;2023-04-16T09:29:38;93972.44;;;22.91;30.72
56052;BME280;41919;42.648;23.384;2023-04-16T09:32:07;93909.66;;;22.43;30.55
56052;BME280;41919;42.648;23.384;2023-04-16T09:34:33;93981.66;;;21.38;32.95
56052;BME280;41919;42.648;23.384;2023-04-16T09:37:18;93978.69;;;21.45;32.81
56052;BME280;41919;42.648;23.384;2023-04-16T09:39:44;93969.00;;;21.54;32.56
56052;BME280;41919;42.648;23.384;2023-04-16T09:42:20;93972.00;;;21.47;33.51
56052;BME280;41919;42.648;23.384;2023-04-16T09:44:48;93919.41;;;21.01;33.20
56052;BME280;41919;42.648;23.384;2023-04-16T09:47:14;93929.75;;;21.03;33.03
56052;BME280;41919;42.648;23.384;2023-04-16T09:49:40;93951.22;;;21.06;33.29
56052;BME280;41919;42.648;23.384;2023-04-16T09:52:21;93949.56;;;20.67;34.92
56052;BME280;41919;42.648;23.384;2023-04-16T09:54:53;93905.66;;;20.46;34.25
56052;BME280;41919;42.648;23.384;2023-04-16T09:57:23;93961.91;;;21.25;33.79
56052;BME280;41919;42.648;23.384;2023-04-16T09:59:53;93926.59;;;21.01;33.25
56052;BME280;41919;42.648;23.384;2023-04-16T10:02:19;93959.25;;;21.25;33.34
56052;BME280;41919;42.648;23.384;2023-04-16T10:04:49;93961.72;;;21.17;33.76
56052;BME280;41919;42.648;23.384;2023-04-16T10:07:15;93943.78;;;21.08;32.68
56052;BME280;41919;42.648;23.384;2023-04-16T10:09:41;93949.88;;;21.09;32.72
56052;BME280;41919;42.648;23.384;2023-04-16T10:12:07;93957.09;;;20.50;33.45
56052;BME280;41919;42.648;23.384;2023-04-16T10:14:32;93891.81;;;19.90;34.01
56052;BME280;41919;42.648;23.384;2023-04-16T10:16:58;93943.09;;;20.15;33.47
56052;BME280;41919;42.648;23.384;2023-04-16T10:19:25;93896.00;;;19.62;34.21
56052;BME280;41919;42.648;23.384;2023-04-16T10:21:51;93890.91;;;19.71;34.92
56052;BME280;41919;42.648;23.384;2023-04-16T10:24:17;93883.03;;;19.61;35.20
56052;BME280;41919;42.648;23.384;2023-04-16T10:26:43;93940.72;;;19.79;35.29
56052;BME280;41919;42.648;23.384;2023-04-16T10:29:10;93944.75;;;20.06;34.41
56052;BME280;41919;42.648;23.384;2023-04-16T10:31:36;93929.25;;;20.23;34.81
56052;BME280;41919;42.648;23.384;2023-04-16T10:34:03;93937.59;;;20.35;34.01
56052;BME280;41919;42.648;23.384;2023-04-16T10:36:30;93873.25;;;19.90;33.67
56052;BME280;41919;42.648;23.384;2023-04-16T10:38:57;93848.00;;;19.98;33.78
56052;BME280;41919;42.648;23.384;2023-04-16T10:41:24;93880.91;;;20.26;33.80
56052;BME280;41919;42.648;23.384;2023-04-16T10:43:51;93857.19;;;20.11;34.22
56052;BME280;41919;42.648;23.384;2023-04-16T10:46:24;93872.88;;;20.36;33.19
56052;BME280;41919;42.648;23.384;2023-04-16T10:48:54;93922.19;;;20.91;33.48
56052;BME280;41919;42.648;23.384;2023-04-16T10:51:33;93889.66;;;20.80;33.79
56052;BME280;41919;42.648;23.384;2023-04-16T10:56:50;93923.53;;;21.12;33.11
56052;BME280;41919;42.648;23.384;2023-04-16T10:59:17;93928.41;;;20.81;33.33
56052;BME280;41919;42.648;23.384;2023-04-16T11:01:45;93916.41;;;21.08;33.00
56052;BME280;41919;42.648;23.384;2023-04-16T11:07:01;93914.28;;;20.86;33.56
56052;BME280;41919;42.648;23.384;2023-04-16T11:12:16;93856.34;;;20.40;32.79
56052;BME280;41919;42.648;23.384;2023-04-16T11:14:46;93901.41;;;20.74;33.22
56052;BME280;41919;42.648;23.384;2023-04-16T11:17:12;93898.19;;;20.48;33.50
56052;BME280;41919;42.648;23.384;2023-04-16T11:19:37;93837.97;;;19.61;34.38
56052;BME280;41919;42.648;23.384;2023-04-16T11:22:03;93902.41;;;19.95;34.80
56052;BME280;41919;42.648;23.384;2023-04-16T11:24:30;93856.56;;;19.90;33.79
56052;BME280;41919;42.648;23.384;2023-04-16T11:26:55;93870.03;;;19.98;34.36
56052;BME280;41919;42.648;23.384;2023-04-16T11:29:21;93837.47;;;20.17;33.99
56052;BME280;41919;42.648;23.384;2023-04-16T11:31:50;93892.84;;;20.53;33.69
56052;BME280;41919;42.648;23.384;2023-04-16T11:34:17;93835.06;;;19.96;34.13
56052;BME280;41919;42.648;23.384;2023-04-16T11:36:43;93832.97;;;19.88;34.02
56052;BME280;41919;42.648;23.384;2023-04-16T11:39:09;93874.25;;;20.00;34.38
56052;BME280;41919;42.648;23.384;2023-04-16T11:41:44;93728.09;;;19.18;34.08
56052;BME280;41919;42.648;23.384;2023-04-16T11:44:26;93874.16;;;20.39;33.88
56052;BME280;41919;42.648;23.384;2023-04-16T11:46:52;93812.81;;;19.92;33.68
56052;BME280;41919;42.648;23.384;2023-04-16T11:49:28;93811.88;;;19.78;34.31
56052;BME280;41919;42.648;23.384;2023-04-16T11:51:54;93866.25;;;20.05;34.40
56052;BME280;41919;42.648;23.384;2023-04-16T11:54:21;93855.03;;;19.84;34.41
56052;BME280;41919;42.648;23.384;2023-04-16T11:56:48;93828.31;;;19.75;34.38
56052;BME280;41919;42.648;23.384;2023-04-16T11:59:19;93858.72;;;20.17;33.95
56052;BME280;41919;42.648;23.384;2023-04-16T12:01:50;93844.19;;;19.40;35.40
56052;BME280;41919;42.648;23.384;2023-04-16T12:04:18;93857.16;;;19.03;36.05
56052;BME280;41919;42.648;23.384;2023-04-16T12:07:12;93848.13;;;19.09;36.08
56052;BME280;41919;42.648;23.384;2023-04-16T12:09:40;93845.13;;;19.20;35.84
56052;BME280;41919;42.648;23.384;2023-04-16T12:12:24;93780.63;;;19.06;35.59
56052;BME280;41919;42.648;23.384;2023-04-16T12:14:50;93775.25;;;19.16;35.22
56052;BME280;41919;42.648;23.384;2023-04-16T12:17:19;93761.94;;;18.87;35.37
56052;BME280;41919;42.648;23.384;2023-04-16T12:19:54;93818.50;;;19.02;36.19
56052;BME280;41919;42.648;23.384;2023-04-16T12:22:27;93840.00;;;18.90;36.06
56052;BME280;41919;42.648;23.384;2023-04-16T12:25:00;93813.00;;;18.93;36.32
56052;BME280;41919;42.648;23.384;2023-04-16T12:27:51;93830.53;;;19.28;35.89
56052;BME280;41919;42.648;23.384;2023-04-16T12:30:19;93821.72;;;19.38;36.10
56052;BME280;41919;42.648;23.384;2023-04-16T12:32:46;93755.13;;;19.15;35.84
56052;BME280;41919;42.648;23.384;2023-04-16T12:35:12;93810.72;;;19.55;35.58
56052;BME280;41919;42.648;23.384;2023-04-16T12:37:39;93644.56;;;18.63;35.47
56052;BME280;41919;42.648;23.384;2023-04-16T12:40:05;93790.16;;;19.42;36.07
56052;BME280;41919;42.648;23.384;2023-04-16T12:42:31;93779.13;;;19.29;37.11
56052;BME280;41919;42.648;23.384;2023-04-16T12:45:04;93764.50;;;19.37;36.98
56052;BME280;41919;42.648;23.384;2023-04-16T12:47:33;93797.31;;;19.75;36.72
56052;BME280;41919;42.648;23.384;2023-04-16T12:49:58;93816.22;;;19.64;36.87
56052;BME280;41919;42.648;23.384;2023-04-16T12:52:24;93710.31;;;18.85;36.76
56052;BME280;41919;42.648;23.384;2023-04-16T12:54:50;93747.78;;;19.02;37.43
56052;BME280;41919;42.648;23.384;2023-04-16T12:57:16;93803.06;;;19.48;37.86
56052;BME280;41919;42.648;23.384;2023-04-16T12:59:42;93753.69;;;18.94;38.34